Time;durP1;ratioP1;P1;durP2;ratioP2;P2;SDS_P1;SDS_P2;PMS_P1;PMS_P2;Temp;Humidity;BMP_temperature;BMP_pressure;BME280_temperature;BME280_humidity;BME280_pressure;Samples;Min_cycle;Max_cycle;Signal;HPM_P1;HPM_P2
2021/09/20 00:01:40;;;;;;;6.57;5.57;;;13.50;99.90;;;;;;5012045;28;20469;-68
2021/09/20 00:04:08;;;;;;;5.83;5.20;;;13.50;99.90;;;;;;5012415;28;20465;-66
2021/09/20 00:06:35;;;;;;;6.90;6.20;;;13.50;99.90;;;;;;5011898;28;20469;-65
2021/09/20 00:09:02;;;;;;;6.23;5.50;;;13.50;99.90;;;;;;5011812;28;20485;-66
2021/09/20 00:11:29;;;;;;;5.93;5.33;;;13.50;99.90;;;;;;5012118;28;20923;-65
2021/09/20 00:13:55;;;;;;;7.27;4.90;;;13.50;99.90;;;;;;5011978;28;20464;-65
2021/09/20 00:16:22;;;;;;;5.43;4.90;;;13.50;99.90;;;;;;5011975;28;20489;-65
2021/09/20 00:18:49;;;;;;;6.47;5.07;;;13.50;99.90;;;;;;5011580;28;20493;-65
2021/09/20 00:21:17;;;;;;;5.23;4.73;;;13.50;99.90;;;;;;5012022;28;20461;-65
2021/09/20 00:23:45;;;;;;;6.03;5.43;;;13.40;99.90;;;;;;5011842;28;20465;-66
2021/09/20 00:26:12;;;;;;;6.37;5.20;;;13.40;99.90;;;;;;5011731;28;20461;-66
2021/09/20 00:28:39;;;;;;;5.00;4.40;;;13.50;99.90;;;;;;5011593;28;20481;-65
2021/09/20 00:31:06;;;;;;;6.17;5.13;;;13.50;99.90;;;;;;5011396;28;20940;-68
2021/09/20 00:33:33;;;;;;;5.20;4.70;;;13.50;99.90;;;;;;5011638;28;20472;-68
2021/09/20 00:35:59;;;;;;;5.17;4.77;;;13.50;99.90;;;;;;5011707;28;20545;-67
2021/09/20 00:38:28;;;;;;;5.93;5.33;;;13.50;99.90;;;;;;5011519;28;20485;-65
2021/09/20 00:40:55;;;;;;;6.13;5.53;;;13.50;99.90;;;;;;5011345;28;20856;-66
2021/09/20 00:43:22;;;;;;;5.87;5.27;;;13.40;99.90;;;;;;5011248;28;20952;-67
2021/09/20 00:45:49;;;;;;;5.33;4.83;;;13.40;99.90;;;;;;5011671;28;20468;-68
2021/09/20 00:48:16;;;;;;;6.70;6.00;;;13.40;99.90;;;;;;5010527;28;20492;-67
2021/09/20 00:50:43;;;;;;;5.83;4.93;;;13.40;99.90;;;;;;5010893;28;20469;-65
2021/09/20 00:53:09;;;;;;;5.60;5.00;;;13.40;99.90;;;;;;5011359;28;21048;-66
2021/09/20 00:55:40;;;;;;;6.53;5.20;;;13.40;99.90;;;;;;5011266;28;20468;-65
2021/09/20 00:58:08;;;;;;;5.27;4.87;;;13.40;99.90;;;;;;5011364;28;20481;-65
2021/09/20 01:00:34;;;;;;;5.73;4.77;;;13.40;99.90;;;;;;5010399;28;20477;-65
2021/09/20 01:03:01;;;;;;;5.90;5.30;;;13.40;99.90;;;;;;5011258;28;20469;-65
2021/09/20 01:05:28;;;;;;;4.47;4.07;;;13.40;99.90;;;;;;5011025;28;20457;-65
2021/09/20 01:07:54;;;;;;;5.73;4.97;;;13.40;99.90;;;;;;5011209;28;20485;-66
2021/09/20 01:10:21;;;;;;;5.87;5.30;;;13.40;99.90;;;;;;5010665;28;20460;-64
2021/09/20 01:12:49;;;;;;;6.63;5.30;;;13.40;99.90;;;;;;5011107;28;20465;-65
2021/09/20 01:15:16;;;;;;;5.27;4.77;;;13.30;99.90;;;;;;5011008;28;20925;-65
2021/09/20 01:17:43;;;;;;;7.40;5.67;;;13.30;99.90;;;;;;5010593;28;20492;-65
2021/09/20 01:20:11;;;;;;;5.83;5.33;;;13.30;99.90;;;;;;5010476;28;21016;-65
2021/09/20 01:22:39;;;;;;;5.73;5.13;;;13.40;99.90;;;;;;5010911;28;20469;-65
2021/09/20 01:25:09;;;;;;;5.70;5.20;;;13.30;99.90;;;;;;5011209;28;20469;-66
2021/09/20 01:27:36;;;;;;;5.77;5.00;;;13.30;99.90;;;;;;5010856;28;20485;-68
2021/09/20 01:30:03;;;;;;;5.67;4.90;;;13.30;99.90;;;;;;5010266;28;20457;-67
2021/09/20 01:32:30;;;;;;;6.00;5.07;;;13.30;99.90;;;;;;5010685;28;20865;-68
2021/09/20 01:34:57;;;;;;;6.20;5.30;;;13.30;99.90;;;;;;5010804;28;20814;-65
2021/09/20 01:37:24;;;;;;;5.50;5.00;;;13.30;99.90;;;;;;5010562;28;20465;-66
2021/09/20 01:39:50;;;;;;;5.97;5.30;;;13.20;99.90;;;;;;5010149;28;21104;-65
2021/09/20 01:42:18;;;;;;;5.30;4.80;;;13.30;99.90;;;;;;5010664;28;20468;-66
2021/09/20 01:44:45;;;;;;;5.43;4.93;;;13.30;99.90;;;;;;5010615;28;20953;-66
2021/09/20 01:47:12;;;;;;;5.43;4.93;;;13.20;99.90;;;;;;5010522;28;20837;-65
2021/09/20 01:49:38;;;;;;;6.30;5.70;;;13.20;99.90;;;;;;5010006;28;20488;-65
2021/09/20 01:52:05;;;;;;;6.00;5.40;;;13.20;99.90;;;;;;5010460;28;20468;-65
2021/09/20 01:54:32;;;;;;;5.10;4.60;;;13.20;99.90;;;;;;5010424;28;20465;-65
2021/09/20 01:56:59;;;;;;;8.70;5.20;;;13.20;99.90;;;;;;5010831;28;20832;-68
2021/09/20 01:59:27;;;;;;;6.10;5.50;;;13.20;99.90;;;;;;5009430;28;20499;-68
2021/09/20 02:01:54;;;;;;;7.77;5.87;;;13.20;99.90;;;;;;5014687;28;20476;-67
2021/09/20 02:04:20;;;;;;;8.03;5.20;;;13.20;99.90;;;;;;5014465;28;21123;-68
2021/09/20 02:06:47;;;;;;;6.27;5.67;;;13.20;99.90;;;;;;5014583;28;20499;-65
2021/09/20 02:09:14;;;;;;;6.27;5.67;;;13.20;99.90;;;;;;5013927;28;20928;-65
2021/09/20 02:11:41;;;;;;;9.23;5.80;;;13.10;99.90;;;;;;5014242;28;20468;-66
2021/09/20 02:14:08;;;;;;;6.40;5.70;;;13.10;99.90;;;;;;5014336;28;20461;-66
2021/09/20 02:16:36;;;;;;;6.47;5.87;;;13.10;99.90;;;;;;5013897;28;20468;-65
2021/09/20 02:19:03;;;;;;;6.00;5.43;;;13.10;99.90;;;;;;5013704;28;20489;-66
2021/09/20 02:21:30;;;;;;;7.33;5.93;;;13.10;99.90;;;;;;5013896;28;20833;-65
2021/09/20 02:23:57;;;;;;;6.80;5.43;;;13.10;99.90;;;;;;5014150;28;20473;-65
2021/09/20 02:26:24;;;;;;;7.10;5.60;;;13.10;99.90;;;;;;5013989;28;20465;-66
2021/09/20 02:28:51;;;;;;;6.00;5.40;;;13.10;99.90;;;;;;5013559;28;20484;-66
2021/09/20 02:31:19;;;;;;;6.43;5.80;;;13.10;99.90;;;;;;5013644;28;20972;-65
2021/09/20 02:33:47;;;;;;;7.33;6.63;;;13.10;99.90;;;;;;5013672;28;20457;-65
2021/09/20 02:36:14;;;;;;;8.50;5.83;;;13.10;99.90;;;;;;5013799;28;20952;-65
2021/09/20 02:38:41;;;;;;;7.40;5.63;;;13.10;99.90;;;;;;5013527;28;20488;-67
2021/09/20 02:41:08;;;;;;;6.00;5.40;;;13.10;99.90;;;;;;5013367;28;20461;-64
2021/09/20 02:43:35;;;;;;;6.40;5.60;;;13.10;99.90;;;;;;5013580;28;20475;-65
2021/09/20 02:46:02;;;;;;;6.30;5.53;;;13.10;99.90;;;;;;5013558;28;20461;-65
2021/09/20 02:48:29;;;;;;;6.73;5.90;;;13.10;99.90;;;;;;5013580;28;20507;-66
2021/09/20 02:50:57;;;;;;;7.40;5.83;;;13.10;99.90;;;;;;5012983;28;20468;-65
2021/09/20 02:53:24;;;;;;;8.03;5.40;;;13.10;99.90;;;;;;5013420;28;20468;-66
2021/09/20 02:55:51;;;;;;;5.63;5.03;;;13.10;99.90;;;;;;5013708;28;20540;-65
2021/09/20 02:58:17;;;;;;;5.60;5.10;;;13.10;99.90;;;;;;5013206;28;20485;-66
2021/09/20 03:00:44;;;;;;;7.70;5.50;;;13.10;99.90;;;;;;5013356;28;20488;-65
2021/09/20 03:03:11;;;;;;;5.43;4.93;;;13.10;99.90;;;;;;5013757;28;20464;-65
2021/09/20 03:05:38;;;;;;;4.80;4.40;;;13.10;99.90;;;;;;5013311;28;20483;-65
2021/09/20 03:08:06;;;;;;;6.10;5.10;;;13.00;99.90;;;;;;5013312;28;20485;-65
2021/09/20 03:10:34;;;;;;;4.93;4.30;;;13.10;99.90;;;;;;5012513;28;20460;-66
2021/09/20 03:13:01;;;;;;;7.10;5.17;;;13.10;99.90;;;;;;5012488;28;20464;-65
2021/09/20 03:15:28;;;;;;;5.80;5.30;;;13.10;99.90;;;;;;5012889;28;21149;-65
2021/09/20 03:17:55;;;;;;;5.80;5.27;;;13.10;99.90;;;;;;5013126;28;20833;-66
2021/09/20 03:20:22;;;;;;;6.00;5.13;;;13.00;99.90;;;;;;5012203;28;20489;-66
2021/09/20 03:22:49;;;;;;;9.07;5.30;;;13.10;99.90;;;;;;5013225;28;20472;-66
2021/09/20 03:25:17;;;;;;;5.60;5.10;;;13.10;99.90;;;;;;5013035;28;20832;-66
2021/09/20 03:27:44;;;;;;;5.67;5.17;;;13.00;99.90;;;;;;5012632;28;20488;-65
2021/09/20 03:30:12;;;;;;;5.53;4.93;;;13.10;99.90;;;;;;5012350;28;20461;-65
2021/09/20 03:32:39;;;;;;;5.03;4.53;;;13.00;99.90;;;;;;5012329;28;20476;-65
2021/09/20 03:35:07;;;;;;;5.40;4.90;;;13.00;99.90;;;;;;5012810;28;20465;-66
2021/09/20 03:37:34;;;;;;;6.20;5.47;;;13.00;99.90;;;;;;5002706;28;20461;-66
2021/09/20 03:40:01;;;;;;;4.97;4.57;;;13.10;99.90;;;;;;5000392;28;20489;-66
2021/09/20 03:42:29;;;;;;;7.90;5.47;;;13.10;99.90;;;;;;5001634;28;20469;-65
2021/09/20 03:44:56;;;;;;;5.40;4.90;;;13.10;99.90;;;;;;5003023;28;20458;-65
2021/09/20 03:47:22;;;;;;;5.30;4.80;;;13.00;99.90;;;;;;5002510;28;20453;-65
2021/09/20 03:49:49;;;;;;;6.30;4.90;;;13.00;99.90;;;;;;5007426;28;20449;-66
2021/09/20 03:52:16;;;;;;;5.40;4.87;;;12.90;99.90;;;;;;5012729;28;20465;-65
2021/09/20 03:54:42;;;;;;;5.78;5.18;;;12.90;99.90;;;;;;5011647;28;20465;-65
2021/09/20 03:57:09;;;;;;;5.70;5.15;;;12.90;99.90;;;;;;5011678;28;20206;-65
2021/09/20 03:59:37;;;;;;;5.73;5.00;;;12.90;99.90;;;;;;5010876;28;20682;-65
2021/09/20 04:02:04;;;;;;;5.70;5.10;;;12.90;99.90;;;;;;5011629;28;20457;-66
2021/09/20 04:04:31;;;;;;;5.40;4.90;;;12.90;99.90;;;;;;5012505;28;20465;-65
2021/09/20 04:07:01;;;;;;;5.40;4.53;;;12.90;99.90;;;;;;5012018;28;20465;-65
2021/09/20 04:09:28;;;;;;;5.50;5.00;;;12.90;99.90;;;;;;5011802;28;20480;-65
2021/09/20 04:11:55;;;;;;;5.60;5.10;;;13.00;99.90;;;;;;5002055;28;20463;-65
2021/09/20 04:14:22;;;;;;;5.60;5.10;;;13.00;99.90;;;;;;4991521;28;20472;-65
2021/09/20 04:16:50;;;;;;;4.73;4.33;;;13.00;99.90;;;;;;4990775;28;20462;-66
2021/09/20 04:19:16;;;;;;;6.27;5.17;;;13.00;99.90;;;;;;4991818;28;20508;-65
2021/09/20 04:21:43;;;;;;;5.77;5.17;;;12.90;99.90;;;;;;4992506;28;20469;-65
2021/09/20 04:24:11;;;;;;;7.13;5.20;;;12.90;99.90;;;;;;4992115;28;20465;-65
2021/09/20 04:26:38;;;;;;;5.47;4.57;;;12.90;99.90;;;;;;4992495;28;20505;-65
2021/09/20 04:29:04;;;;;;;7.07;4.87;;;12.90;99.90;;;;;;4991660;28;21289;-65
2021/09/20 04:31:31;;;;;;;8.20;5.60;;;12.90;99.90;;;;;;4991144;28;20462;-65
2021/09/20 04:33:59;;;;;;;5.93;5.33;;;12.90;99.90;;;;;;4991162;28;20469;-65
2021/09/20 04:36:26;;;;;;;5.20;4.70;;;12.80;99.90;;;;;;4992016;28;20458;-65
2021/09/20 04:38:53;;;;;;;5.50;5.00;;;12.80;99.90;;;;;;4991895;28;20493;-66
2021/09/20 04:41:19;;;;;;;5.33;4.80;;;12.80;99.90;;;;;;4991265;28;20486;-64
2021/09/20 04:43:46;;;;;;;5.60;4.80;;;12.80;99.90;;;;;;4991911;28;20465;-64
2021/09/20 04:46:13;;;;;;;5.57;4.83;;;12.80;99.90;;;;;;4991597;28;20458;-65
2021/09/20 04:48:40;;;;;;;5.73;5.23;;;12.80;99.90;;;;;;4991854;28;20494;-65
2021/09/20 04:51:08;;;;;;;5.60;4.93;;;12.80;99.90;;;;;;4991124;28;20462;-65
2021/09/20 04:53:34;;;;;;;5.80;4.50;;;12.80;99.90;;;;;;4991780;28;20470;-64
2021/09/20 04:56:01;;;;;;;5.00;4.43;;;12.80;99.90;;;;;;4991555;28;20869;-65
2021/09/20 04:58:28;;;;;;;5.87;5.20;;;12.70;99.90;;;;;;4991562;28;20485;-65
2021/09/20 05:00:55;;;;;;;5.23;4.73;;;12.70;99.90;;;;;;5034266;23;20496;-72
2021/09/20 05:03:22;;;;;;;5.53;4.67;;;12.80;99.90;;;;;;5030809;28;20456;-72
2021/09/20 05:05:49;;;;;;;5.70;5.17;;;12.70;99.90;;;;;;5031154;28;20452;-73
2021/09/20 05:08:18;;;;;;;6.10;4.67;;;12.70;99.90;;;;;;5030551;28;21122;-72
2021/09/20 05:10:45;;;;;;;5.77;4.90;;;12.80;99.90;;;;;;5030555;28;20998;-72
2021/09/20 05:13:11;;;;;;;6.40;4.93;;;12.80;99.90;;;;;;5030714;28;20499;-73
2021/09/20 05:15:38;;;;;;;6.10;5.50;;;12.80;99.90;;;;;;5031019;28;20464;-71
2021/09/20 05:18:05;;;;;;;10.33;4.93;;;12.80;99.90;;;;;;5030783;28;20551;-73
2021/09/20 05:20:31;;;;;;;6.07;5.47;;;12.80;99.90;;;;;;5030292;28;20839;-73
2021/09/20 05:22:58;;;;;;;5.37;4.80;;;12.80;99.90;;;;;;5030919;28;20472;-73
2021/09/20 05:25:26;;;;;;;5.93;5.33;;;12.80;99.90;;;;;;5030339;28;20460;-72
2021/09/20 05:27:53;;;;;;;8.17;5.73;;;12.80;99.90;;;;;;5030695;28;20488;-72
2021/09/20 05:30:20;;;;;;;7.90;6.03;;;12.80;99.90;;;;;;5030111;28;20835;-72
2021/09/20 05:32:47;;;;;;;7.00;5.53;;;12.80;99.90;;;;;;5030684;28;21020;-71
2021/09/20 05:35:15;;;;;;;6.03;5.43;;;12.80;99.90;;;;;;5030160;28;20874;-72
2021/09/20 05:37:45;;;;;;;5.67;5.17;;;12.80;99.90;;;;;;5030216;28;20484;-72
2021/09/20 05:40:12;;;;;;;6.50;4.87;;;12.80;99.90;;;;;;5029876;28;20874;-72
2021/09/20 05:42:42;;;;;;;6.57;5.50;;;12.80;99.90;;;;;;5030489;28;20460;-73
2021/09/20 05:45:10;;;;;;;7.30;5.40;;;12.90;99.90;;;;;;5030478;28;20507;-73
2021/09/20 05:47:38;;;;;;;5.77;5.17;;;12.90;99.90;;;;;;5030399;28;20484;-73
2021/09/20 05:50:07;;;;;;;5.70;4.80;;;12.90;99.90;;;;;;5030041;28;20978;-73
2021/09/20 05:52:34;;;;;;;6.47;5.87;;;12.90;99.90;;;;;;5030395;28;20461;-74
2021/09/20 05:55:00;;;;;;;5.20;4.70;;;12.90;99.90;;;;;;5030379;28;20460;-73
2021/09/20 05:57:27;;;;;;;5.90;5.10;;;12.90;99.90;;;;;;5030619;28;20464;-73
2021/09/20 05:59:55;;;;;;;5.60;5.00;;;13.00;99.90;;;;;;5029721;28;20885;-73
2021/09/20 06:02:22;;;;;;;6.80;6.10;;;13.00;99.90;;;;;;5030203;28;20472;-74
2021/09/20 06:04:49;;;;;;;6.60;5.90;;;13.00;99.90;;;;;;5030325;28;20460;-74
2021/09/20 06:07:15;;;;;;;7.60;6.40;;;13.00;99.90;;;;;;5030188;28;20979;-74
2021/09/20 06:09:42;;;;;;;6.47;5.87;;;13.00;99.90;;;;;;5029662;28;20456;-74
2021/09/20 06:12:09;;;;;;;7.00;5.97;;;13.10;99.90;;;;;;5030213;28;20471;-74
2021/09/20 06:14:35;;;;;;;6.37;5.77;;;13.10;99.90;;;;;;5030141;28;20522;-74
2021/09/20 06:17:04;;;;;;;6.63;6.03;;;13.10;99.90;;;;;;5030288;28;20460;-74
2021/09/20 06:19:31;;;;;;;6.70;6.00;;;13.10;99.90;;;;;;5029649;28;21148;-74
2021/09/20 06:21:58;;;;;;;7.43;6.20;;;13.10;99.90;;;;;;5030157;28;20492;-74
2021/09/20 06:24:24;;;;;;;6.40;5.60;;;13.20;99.90;;;;;;5030121;28;20468;-74
2021/09/20 06:26:51;;;;;;;8.87;5.90;;;13.20;99.90;;;;;;5030075;28;20467;-74
2021/09/20 06:29:18;;;;;;;6.43;5.50;;;13.30;99.90;;;;;;5029867;28;20567;-74
2021/09/20 06:31:44;;;;;;;8.50;6.33;;;13.30;99.90;;;;;;5029847;28;20464;-74
2021/09/20 06:34:13;;;;;;;8.53;6.40;;;13.30;99.90;;;;;;5029986;28;20464;-74
2021/09/20 06:36:40;;;;;;;6.43;5.70;;;13.30;99.90;;;;;;5030025;28;20464;-73
2021/09/20 06:39:07;;;;;;;6.97;6.27;;;13.40;99.90;;;;;;5029739;28;21004;-74
2021/09/20 06:41:34;;;;;;;6.97;6.27;;;13.40;99.90;;;;;;5029718;28;20865;-73
2021/09/20 06:44:02;;;;;;;7.60;6.73;;;13.40;99.90;;;;;;5029826;28;20500;-73
2021/09/20 06:46:30;;;;;;;7.80;7.00;;;13.40;99.90;;;;;;5030261;28;20551;-73
2021/09/20 06:48:57;;;;;;;9.60;6.53;;;13.50;99.90;;;;;;5033530;28;20910;-73
2021/09/20 06:51:26;;;;;;;7.80;6.70;;;13.50;99.90;;;;;;5033187;28;20455;-74
2021/09/20 06:53:52;;;;;;;6.30;5.70;;;13.60;99.90;;;;;;5033405;28;20460;-73
2021/09/20 06:56:19;;;;;;;7.20;6.50;;;13.60;99.90;;;;;;5033293;28;20465;-74
2021/09/20 06:58:46;;;;;;;7.53;6.53;;;13.60;99.90;;;;;;5033505;28;20896;-74
2021/09/20 07:01:13;;;;;;;7.30;6.57;;;13.70;99.90;;;;;;5032742;28;20488;-73
2021/09/20 07:03:40;;;;;;;8.20;7.33;;;13.70;99.90;;;;;;5033288;28;20559;-73
2021/09/20 07:06:07;;;;;;;9.07;7.90;;;13.80;99.90;;;;;;5033244;28;20460;-74
2021/09/20 07:08:36;;;;;;;7.07;6.37;;;13.80;99.90;;;;;;5033351;28;20480;-73
2021/09/20 07:11:03;;;;;;;10.47;7.37;;;13.80;99.90;;;;;;5032553;28;20456;-74
2021/09/20 07:13:29;;;;;;;9.20;6.57;;;13.80;99.90;;;;;;5033117;28;20487;-74
2021/09/20 07:15:56;;;;;;;9.03;7.70;;;13.90;99.90;;;;;;5032970;28;20467;-74
2021/09/20 07:18:23;;;;;;;9.03;8.10;;;13.90;99.90;;;;;;5033084;28;21030;-74
2021/09/20 07:20:50;;;;;;;17.20;8.33;;;14.00;99.90;;;;;;5032423;28;20480;-74
2021/09/20 07:23:17;;;;;;;10.37;8.10;;;14.00;99.90;;;;;;5032724;28;20471;-74
2021/09/20 07:25:45;;;;;;;10.80;8.67;;;14.10;99.90;;;;;;5033069;28;20514;-74
2021/09/20 07:28:12;;;;;;;9.70;8.70;;;14.10;99.90;;;;;;5032730;28;20873;-74
2021/09/20 07:30:41;;;;;;;13.70;8.97;;;14.10;99.90;;;;;;5032450;28;20467;-74
2021/09/20 07:33:08;;;;;;;9.47;8.13;;;14.20;99.90;;;;;;5032486;28;20467;-74
2021/09/20 07:35:35;;;;;;;11.80;9.20;;;14.20;99.90;;;;;;5032812;28;21240;-74
2021/09/20 07:38:02;;;;;;;9.77;8.00;;;14.20;99.90;;;;;;5032351;28;20483;-74
2021/09/20 07:40:29;;;;;;;11.10;9.70;;;14.30;99.90;;;;;;5032151;28;20480;-74
2021/09/20 07:42:59;;;;;;;11.03;9.73;;;14.40;99.90;;;;;;5032450;28;20468;-74
2021/09/20 07:45:26;;;;;;;9.60;8.50;;;14.40;99.90;;;;;;5032599;28;20467;-74
2021/09/20 07:47:53;;;;;;;9.67;8.30;;;14.50;99.90;;;;;;5032564;28;20516;-74
2021/09/20 07:50:22;;;;;;;10.33;9.30;;;14.50;99.90;;;;;;5031711;28;20463;-74
2021/09/20 07:52:48;;;;;;;10.63;9.53;;;14.60;99.90;;;;;;5032607;28;20464;-74
2021/09/20 07:55:16;;;;;;;11.63;10.20;;;14.70;99.90;;;;;;5031917;28;20460;-74
2021/09/20 07:57:43;;;;;;;9.17;8.20;;;14.70;99.90;;;;;;5031967;28;20487;-74
2021/09/20 08:00:15;;;;;;;10.03;9.03;;;14.70;99.90;;;;;;5031359;28;20475;-74
2021/09/20 08:02:42;;;;;;;12.63;9.80;;;14.80;99.90;;;;;;5032273;28;20452;-74
2021/09/20 08:05:10;;;;;;;11.63;8.60;;;14.80;99.90;;;;;;5031917;28;20463;-74
2021/09/20 08:07:37;;;;;;;10.40;9.00;;;14.80;99.90;;;;;;5032050;28;20819;-74
2021/09/20 08:10:05;;;;;;;10.53;8.70;;;14.80;99.90;;;;;;5031485;28;20992;-74
2021/09/20 08:12:31;;;;;;;10.37;9.27;;;14.80;99.90;;;;;;5031817;28;20551;-74
2021/09/20 08:14:58;;;;;;;10.77;8.97;;;14.80;99.90;;;;;;5032029;28;20475;-74
2021/09/20 08:17:26;;;;;;;11.37;9.33;;;14.80;99.90;;;;;;5031586;28;20460;-74
2021/09/20 08:19:53;;;;;;;11.13;9.80;;;14.80;99.90;;;;;;5031494;28;20464;-74
2021/09/20 08:22:19;;;;;;;11.40;9.37;;;14.80;99.90;;;;;;5031343;28;20488;-74
2021/09/20 08:24:46;;;;;;;12.30;9.40;;;14.70;99.90;;;;;;5031757;28;20461;-74
2021/09/20 08:27:13;;;;;;;11.20;9.20;;;14.80;99.90;;;;;;5031625;28;20468;-74
2021/09/20 08:29:40;;;;;;;10.50;9.40;;;14.80;99.90;;;;;;5030926;28;20488;-74
2021/09/20 08:32:07;;;;;;;9.77;8.77;;;14.90;99.90;;;;;;5031638;28;20472;-74
2021/09/20 08:34:36;;;;;;;14.77;9.73;;;14.90;99.90;;;;;;5031504;28;20456;-74
2021/09/20 08:37:03;;;;;;;13.30;10.13;;;15.00;99.90;;;;;;5031498;28;20464;-74
2021/09/20 08:39:30;;;;;;;9.83;8.73;;;15.00;99.90;;;;;;5031120;28;20484;-74
2021/09/20 08:41:58;;;;;;;10.77;9.13;;;15.00;99.90;;;;;;5013259;28;20473;-74
2021/09/20 08:44:25;;;;;;;12.37;9.53;;;15.10;99.90;;;;;;5004076;28;20548;-74
2021/09/20 08:46:54;;;;;;;9.80;8.90;;;15.20;99.90;;;;;;4997202;28;20553;-74
2021/09/20 08:49:22;;;;;;;10.00;8.53;;;15.20;99.90;;;;;;4999407;28;20576;-74
2021/09/20 08:51:54;;;;;;;13.30;9.57;;;15.20;99.90;;;;;;5004939;28;20476;-74
2021/09/20 08:54:22;;;;;;;10.60;9.50;;;15.30;99.90;;;;;;5002050;28;20528;-74
2021/09/20 08:56:49;;;;;;;12.33;10.80;;;15.20;99.90;;;;;;4996522;28;20457;-74
2021/09/20 08:59:21;;;;;;;12.67;10.70;;;15.30;99.90;;;;;;5002192;28;20486;-74
2021/09/20 09:01:50;;;;;;;11.90;10.23;;;15.30;99.90;;;;;;5002358;28;20485;-74
2021/09/20 09:04:27;;;;;;;10.77;9.67;;;15.30;99.90;;;;;;5009453;28;20903;-74
2021/09/20 09:06:56;;;;;;;11.03;8.93;;;15.30;99.90;;;;;;4994795;28;20454;-74
2021/09/20 09:09:27;;;;;;;12.83;11.10;;;15.40;99.90;;;;;;5002954;28;20489;-73
2021/09/20 09:12:09;;;;;;;12.17;10.47;;;15.30;99.90;;;;;;4998644;28;20460;-74
2021/09/20 09:14:40;;;;;;;12.03;9.80;;;15.30;99.90;;;;;;5000217;28;20520;-74
2021/09/20 09:17:14;;;;;;;11.77;9.90;;;15.20;99.90;;;;;;4998691;28;20501;-74
2021/09/20 09:19:46;;;;;;;12.53;9.93;;;15.20;99.90;;;;;;5000445;28;20460;-74
2021/09/20 09:22:15;;;;;;;11.73;10.47;;;15.30;99.90;;;;;;5001276;28;21005;-74
2021/09/20 09:25:00;;;;;;;10.80;9.70;;;15.30;99.90;;;;;;5004348;28;20460;-73
2021/09/20 09:27:28;;;;;;;10.83;9.47;;;15.30;99.90;;;;;;4993015;28;20494;-73
2021/09/20 09:30:05;;;;;;;12.40;10.30;;;15.30;99.90;;;;;;4997790;28;20839;-73
2021/09/20 09:32:34;;;;;;;11.90;9.67;;;15.30;99.90;;;;;;4997394;28;20446;-73
2021/09/20 09:35:06;;;;;;;11.93;10.33;;;15.30;99.90;;;;;;4999273;28;20833;-73
2021/09/20 09:37:35;;;;;;;12.60;10.23;;;15.30;99.90;;;;;;4997407;28;20483;-73
2021/09/20 09:40:12;;;;;;;10.70;8.60;;;15.40;99.90;;;;;;4998085;28;20552;-73
2021/09/20 09:42:40;;;;;;;9.57;8.60;;;15.40;99.90;;;;;;4997274;28;20517;-72
2021/09/20 09:45:25;;;;;;;9.90;8.90;;;15.40;99.90;;;;;;4998056;28;20461;-72
2021/09/20 09:48:06;;;;;;;14.47;10.17;;;15.50;99.90;;;;;;4997085;28;20474;-72
2021/09/20 09:50:34;;;;;;;11.23;9.30;;;15.50;99.90;;;;;;4997839;28;20459;-72
2021/09/20 09:53:02;;;;;;;11.80;10.50;;;15.50;99.90;;;;;;4997241;28;21021;-72
2021/09/20 09:55:32;;;;;;;11.63;9.40;;;15.50;99.90;;;;;;4997111;28;20556;-73
2021/09/20 09:58:11;;;;;;;11.00;9.33;;;15.50;99.90;;;;;;4998293;28;20486;-72
2021/09/20 10:00:39;;;;;;;10.60;9.50;;;15.60;99.90;;;;;;4996243;28;20477;-72
2021/09/20 10:03:06;;;;;;;11.57;9.80;;;15.60;99.90;;;;;;4997828;28;20860;-73
2021/09/20 10:05:34;;;;;;;11.93;10.67;;;15.70;99.90;;;;;;4998433;28;20473;-73
2021/09/20 10:08:11;;;;;;;10.97;9.53;;;15.70;99.90;;;;;;4996850;28;20487;-73
2021/09/20 10:10:41;;;;;;;10.77;9.67;;;15.70;99.90;;;;;;4998350;28;20506;-72
2021/09/20 10:13:11;;;;;;;15.20;9.97;;;15.70;99.90;;;;;;4997063;28;20454;-74
2021/09/20 10:15:38;;;;;;;14.70;10.70;;;15.70;99.90;;;;;;5000643;28;20839;-73
2021/09/20 10:18:06;;;;;;;12.47;9.80;;;15.70;99.90;;;;;;4997736;28;20524;-72
2021/09/20 10:20:34;;;;;;;13.20;10.07;;;15.70;99.90;;;;;;4997817;28;20841;-72
2021/09/20 10:23:03;;;;;;;12.13;10.83;;;15.70;99.90;;;;;;4998796;28;20878;-72
2021/09/20 10:25:32;;;;;;;11.47;10.27;;;15.70;99.90;;;;;;4994137;28;20469;-72
2021/09/20 10:27:59;;;;;;;13.13;10.53;;;15.70;99.90;;;;;;4993963;28;20494;-73
2021/09/20 10:30:29;;;;;;;11.43;10.13;;;15.70;99.90;;;;;;4992917;28;20470;-73
2021/09/20 10:33:01;;;;;;;11.20;9.50;;;15.70;99.90;;;;;;5005998;28;20462;-73
2021/09/20 10:35:34;;;;;;;12.13;10.57;;;15.70;99.90;;;;;;5003671;28;20461;-73
2021/09/20 10:38:06;;;;;;;11.80;9.77;;;15.70;99.90;;;;;;5004236;28;20482;-73
2021/09/20 10:40:33;;;;;;;12.10;10.10;;;15.60;99.90;;;;;;5003990;28;20548;-73
2021/09/20 10:43:06;;;;;;;14.67;10.20;;;15.70;99.90;;;;;;5003611;28;20564;-73
2021/09/20 10:45:45;;;;;;;13.37;10.97;;;15.60;99.90;;;;;;5003583;28;20523;-73
2021/09/20 10:48:34;;;;;;;12.37;11.13;;;15.60;99.90;;;;;;5001838;28;20490;-73
2021/09/20 10:51:04;;;;;;;12.50;10.20;;;15.60;99.90;;;;;;5002872;28;20462;-73
2021/09/20 10:53:34;;;;;;;12.00;10.50;;;15.50;99.90;;;;;;5002021;28;20458;-73
2021/09/20 10:56:18;;;;;;;12.07;10.43;;;15.50;99.90;;;;;;5001573;28;20493;-73
2021/09/20 10:59:24;;;;;;;12.70;11.10;;;15.50;99.90;;;;;;5004413;28;20485;-74
2021/09/20 11:02:11;;;;;;;13.73;11.93;;;15.50;99.90;;;;;;5001907;28;20859;-74
2021/09/20 11:04:40;;;;;;;11.93;10.60;;;15.50;99.90;;;;;;5003398;28;20470;-74
2021/09/20 11:07:23;;;;;;;12.90;10.80;;;15.50;99.90;;;;;;5001781;28;20497;-75
2021/09/20 11:09:54;;;;;;;12.30;10.30;;;15.50;99.90;;;;;;5001922;28;20469;-74
2021/09/20 11:12:23;;;;;;;11.30;10.10;;;15.50;99.90;;;;;;5001550;28;20453;-74
2021/09/20 11:15:04;;;;;;;11.80;10.60;;;15.50;99.90;;;;;;5003318;28;20460;-73
2021/09/20 11:17:42;;;;;;;13.30;11.40;;;15.50;99.90;;;;;;5001817;28;20461;-74
2021/09/20 11:20:37;;;;;;;12.67;10.67;;;15.50;99.90;;;;;;5001274;28;20912;-74
2021/09/20 11:23:33;;;;;;;13.50;11.67;;;15.60;99.90;;;;;;5002850;28;20859;-73
2021/09/20 11:26:14;;;;;;;11.80;10.60;;;15.60;99.90;;;;;;5001508;28;20482;-73
2021/09/20 11:28:46;;;;;;;12.10;11.00;;;15.60;99.90;;;;;;5002696;28;20474;-74
2021/09/20 11:31:13;;;;;;;12.87;11.33;;;15.70;99.90;;;;;;5000843;28;20916;-73
2021/09/20 11:33:42;;;;;;;13.00;10.47;;;15.70;99.90;;;;;;5000280;28;20464;-73
2021/09/20 11:36:22;;;;;;;10.70;9.60;;;15.80;99.90;;;;;;5002358;28;20453;-73
2021/09/20 11:39:05;;;;;;;12.30;10.63;;;15.80;99.90;;;;;;5002336;28;20829;-73
2021/09/20 11:41:34;;;;;;;16.13;11.10;;;15.90;99.90;;;;;;5001465;28;20453;-74
2021/09/20 11:44:02;;;;;;;11.60;10.40;;;15.90;99.90;;;;;;5001980;28;20455;-73
2021/09/20 11:46:30;;;;;;;11.13;9.80;;;16.00;99.90;;;;;;5000509;28;20458;-73
2021/09/20 11:49:10;;;;;;;11.30;9.83;;;16.00;99.90;;;;;;5001033;28;20882;-73
2021/09/20 11:51:38;;;;;;;12.70;10.67;;;16.10;99.90;;;;;;5001332;28;21024;-74
2021/09/20 11:54:06;;;;;;;11.50;10.30;;;16.20;99.90;;;;;;5000632;28;20472;-73
2021/09/20 11:56:35;;;;;;;13.13;10.53;;;16.20;99.90;;;;;;5002179;28;20457;-74
2021/09/20 11:59:06;;;;;;;11.10;9.40;;;16.30;99.90;;;;;;5002514;28;20581;-74
2021/09/20 12:01:32;;;;;;;11.67;10.47;;;16.50;99.90;;;;;;5000865;28;20876;-74
2021/09/20 12:04:00;;;;;;;11.00;9.87;;;16.60;99.90;;;;;;5001227;28;20465;-74
2021/09/20 12:06:28;;;;;;;11.57;10.37;;;16.80;99.90;;;;;;5002523;28;20489;-74
2021/09/20 12:08:59;;;;;;;10.00;9.00;;;16.90;99.90;;;;;;5001473;28;20482;-74
2021/09/20 12:11:26;;;;;;;11.57;9.77;;;17.00;99.90;;;;;;5000140;28;20553;-74
2021/09/20 12:13:55;;;;;;;12.23;9.63;;;17.10;99.90;;;;;;5001780;28;20464;-74
2021/09/20 12:16:21;;;;;;;9.70;8.70;;;17.10;99.90;;;;;;5002023;28;20488;-74
2021/09/20 12:18:48;;;;;;;11.20;10.00;;;17.10;99.90;;;;;;5001910;28;20981;-74
2021/09/20 12:21:18;;;;;;;10.90;9.80;;;17.10;99.90;;;;;;5000654;28;20462;-74
2021/09/20 12:23:48;;;;;;;10.87;9.37;;;17.00;99.90;;;;;;4999859;28;20486;-73
2021/09/20 12:26:17;;;;;;;9.60;8.60;;;16.90;99.90;;;;;;5000477;28;20492;-73
2021/09/20 12:28:50;;;;;;;10.30;9.23;;;16.80;99.90;;;;;;5001779;28;20836;-73
2021/09/20 12:31:21;;;;;;;11.37;10.00;;;16.60;99.90;;;;;;5000082;28;20469;-74
2021/09/20 12:33:53;;;;;;;11.00;9.80;;;16.50;99.90;;;;;;4999545;28;20962;-74
2021/09/20 12:36:23;;;;;;;10.00;9.00;;;16.40;99.90;;;;;;4999674;28;20458;-73
2021/09/20 12:39:07;;;;;;;9.67;8.67;;;16.30;99.90;;;;;;5001291;28;20488;-73
2021/09/20 12:41:37;;;;;;;11.40;9.53;;;16.20;99.90;;;;;;4999739;28;20525;-74
2021/09/20 12:44:04;;;;;;;13.50;9.30;;;16.20;99.90;;;;;;4998809;28;20489;-74
2021/09/20 12:46:34;;;;;;;11.10;9.43;;;16.30;99.90;;;;;;5005577;28;20461;-73
2021/09/20 12:49:01;;;;;;;12.93;8.67;;;16.30;99.90;;;;;;5001203;28;20491;-73